Time;durP1;ratioP1;P1;durP2;ratioP2;P2;SDS_P1;SDS_P2;PMS_P1;PMS_P2;Temp;Humidity;BMP_temperature;BMP_pressure;BME280_temperature;BME280_humidity;BME280_pressure;Samples;Min_cycle;Max_cycle;Signal;HPM_P1;HPM_P2
2022/06/14 00:01:59;;;;;;;;;7.67;7.67;;;;;19.53;42.22;101746.28;5021445;28;47074;-77
2022/06/14 00:04:24;;;;;;;;;5.00;4.00;;;;;19.42;42.48;101727.78;5022576;28;45286;-74
2022/06/14 00:06:49;;;;;;;;;5.67;5.33;;;;;19.55;42.29;101748.84;5031948;28;45233;-75
2022/06/14 00:09:15;;;;;;;;;3.67;3.00;;;;;19.33;42.11;101734.25;5019808;28;45289;-75
2022/06/14 00:11:41;;;;;;;;;6.67;6.67;;;;;19.08;42.50;101696.66;5022405;28;45465;-75
2022/06/14 00:14:09;;;;;;;;;8.00;6.00;;;;;19.26;42.36;101734.16;5039778;28;45455;-74
2022/06/14 00:16:35;;;;;;;;;8.33;6.00;;;;;19.21;42.46;101724.88;5021043;28;45460;-76
2022/06/14 00:19:06;;;;;;;;;6.00;6.00;;;;;19.02;42.14;101693.81;5027739;28;45377;-75
2022/06/14 00:21:33;;;;;;;;;7.00;7.00;;;;;19.39;42.29;101745.19;5017174;28;48617;-76
2022/06/14 00:23:59;;;;;;;;;8.00;8.00;;;;;19.00;42.46;101701.25;5018844;28;45553;-75
2022/06/14 00:26:25;;;;;;;;;7.67;5.33;;;;;19.41;42.54;101753.91;5018988;28;45497;-77
2022/06/14 00:28:50;;;;;;;;;6.33;6.33;;;;;19.38;42.38;101742.66;5018987;28;45290;-76
2022/06/14 00:31:22;;;;;;;;;5.33;5.33;;;;;18.62;42.24;101619.38;5018668;28;46695;-76
2022/06/14 00:33:48;;;;;;;;;5.33;5.33;;;;;17.88;42.29;101509.31;5017328;28;45540;-77
2022/06/14 00:36:19;;;;;;;;;6.00;5.00;;;;;19.32;42.46;101748.75;5029595;28;45327;-75
2022/06/14 00:38:45;;;;;;;;;6.67;5.00;;;;;19.30;42.70;101750.81;5021704;28;45514;-76
2022/06/14 00:41:26;;;;;;;;;4.00;4.00;;;;;19.12;42.23;101722.25;5041682;28;45322;-74
2022/06/14 00:43:52;;;;;;;;;4.33;4.00;;;;;19.01;42.36;101702.91;5038788;28;45200;-75
2022/06/14 00:46:23;;;;;;;;;4.33;4.33;;;;;19.25;42.61;101750.50;5039056;28;45523;-75
2022/06/14 00:48:55;;;;;;;;;5.33;4.00;;;;;19.20;42.83;101760.94;5038526;28;45551;-74
2022/06/14 00:51:25;;;;;;;;;7.00;7.00;;;;;19.13;43.01;101766.22;5037434;28;48739;-75
2022/06/14 00:53:53;;;;;;;;;6.00;6.00;;;;;19.03;43.51;101766.44;5037566;28;45395;-75
2022/06/14 00:56:26;;;;;;;;;4.00;4.00;;;;;18.61;43.41;101701.19;5038382;28;45253;-76
2022/06/14 00:59:02;;;;;;;;;4.67;4.67;;;;;18.78;43.49;101729.78;5038139;28;45277;-75
2022/06/14 01:01:34;;;;;;;;;4.00;4.00;;;;;18.69;43.30;101696.66;5012740;28;48263;-76
2022/06/14 01:04:10;;;;;;;;;8.33;7.67;;;;;18.95;43.50;101752.13;5034583;28;46369;-76
2022/06/14 01:06:41;;;;;;;;;9.00;6.00;;;;;18.96;43.47;101754.66;5019294;28;45434;-76
2022/06/14 01:09:09;;;;;;;;;8.33;8.33;;;;;18.74;43.73;101733.84;5023889;28;45397;-77
2022/06/14 01:11:45;;;;;;;;;15.33;12.33;;;;;18.37;43.54;101665.25;5017921;28;45617;-75
2022/06/14 01:14:17;;;;;;;;;24.33;19.00;;;;;18.80;43.80;101749.31;5017928;28;45434;-76
2022/06/14 01:16:43;;;;;;;;;18.00;16.33;;;;;18.66;43.66;101726.66;5003139;28;45387;-75
2022/06/14 01:19:16;;;;;;;;;20.00;18.00;;;;;18.67;43.73;101722.09;5037623;28;45499;-76
2022/06/14 01:22:09;;;;;;;;;23.33;19.33;;;;;18.65;44.09;101702.59;5020974;28;47425;-74
2022/06/14 01:24:38;;;;;;;;;16.00;15.33;;;;;18.73;43.65;101713.31;5026469;28;45576;-74
2022/06/14 01:27:07;;;;;;;;;11.00;9.67;;;;;18.45;43.82;101677.88;5036932;28;45503;-75
2022/06/14 01:29:35;;;;;;;;;9.67;9.67;;;;;18.56;44.19;101720.56;5027254;28;45227;-76
2022/06/14 01:32:02;;;;;;;;;11.00;8.33;;;;;18.65;44.36;101742.97;5037782;28;45831;-75
2022/06/14 01:34:30;;;;;;;;;9.67;9.00;;;;;18.60;44.33;101738.06;5015981;28;45444;-76
2022/06/14 01:36:58;;;;;;;;;9.33;8.33;;;;;18.13;44.42;101662.63;5000120;28;45496;-76
2022/06/14 01:39:25;;;;;;;;;6.00;4.33;;;;;18.42;44.53;101703.28;5017854;28;45231;-77
2022/06/14 01:42:06;;;;;;;;;5.33;5.33;;;;;18.57;44.65;101734.88;5017404;28;45560;-77
2022/06/14 01:44:42;;;;;;;;;6.00;5.67;;;;;18.43;44.84;101737.28;5031416;28;45330;-74
2022/06/14 01:47:42;;;;;;;;;7.00;5.00;;;;;18.35;44.99;101722.97;5037415;28;45241;-76
2022/06/14 01:53:13;;;;;;;;;5.00;5.00;;;;;18.12;44.77;101685.16;5032765;28;45479;-77
2022/06/14 01:55:51;;;;;;;;;5.67;4.67;;;;;18.39;45.15;101725.16;5017355;28;45464;-76
2022/06/14 01:58:36;;;;;;;;;6.33;4.67;;;;;18.24;44.95;101705.34;5011034;28;45417;-75
2022/06/14 02:01:17;;;;;;;;;3.67;3.67;;;;;18.37;45.12;101712.88;5036238;28;45412;-76
2022/06/14 02:06:38;;;;;;;;;3.00;3.00;;;;;18.33;45.26;101698.06;5023446;28;45595;-75
2022/06/14 02:09:26;;;;;;;;;2.67;2.00;;;;;18.31;45.16;101700.94;5033520;28;45464;-77
2022/06/14 02:11:56;;;;;;;;;4.67;4.67;;;;;18.05;45.37;101657.25;5033415;28;45213;-79
2022/06/14 02:14:45;;;;;;;;;4.00;3.00;;;;;17.88;45.21;101637.59;5018303;28;48942;-74
2022/06/14 02:17:38;;;;;;;;;3.00;3.00;;;;;18.20;45.50;101698.59;5036145;28;45487;-75
2022/06/14 02:20:15;;;;;;;;;4.33;3.00;;;;;18.19;45.70;101700.44;5035524;28;45471;-75
2022/06/14 02:22:52;;;;;;;;;3.00;3.00;;;;;17.31;45.42;101547.03;5035845;28;45372;-75
2022/06/14 02:25:24;;;;;;;;;1.00;1.00;;;;;18.20;45.46;101704.81;5017004;28;46502;-73
2022/06/14 02:28:00;;;;;;;;;6.00;4.00;;;;;18.03;46.27;101702.34;5004824;28;45676;-74
2022/06/14 02:30:36;;;;;;;;;2.67;2.67;;;;;18.04;46.42;101698.63;5022184;28;45523;-75
2022/06/14 02:33:12;;;;;;;;;3.00;3.00;;;;;17.74;46.30;101657.94;4999786;28;45251;-75
2022/06/14 02:36:08;;;;;;;;;3.33;3.00;;;;;17.98;46.32;101696.59;5032412;28;46202;-75
2022/06/14 02:38:40;;;;;;;;;3.33;3.33;;;;;18.01;46.44;101696.25;5022280;28;45351;-75
2022/06/14 02:41:14;;;;;;;;;2.00;2.00;;;;;17.94;46.80;101698.78;5022047;28;45297;-76
2022/06/14 02:43:57;;;;;;;;;3.00;2.00;;;;;17.60;47.03;101645.13;5021834;28;45380;-73
2022/06/14 02:46:33;;;;;;;;;3.33;3.33;;;;;17.82;47.07;101687.56;5035707;28;46593;-75
2022/06/14 02:49:11;;;;;;;;;6.00;5.00;;;;;17.76;47.13;101690.91;5021348;28;45501;-74
2022/06/14 02:51:45;;;;;;;;;3.00;3.00;;;;;17.58;47.57;101672.19;5032496;28;45645;-75
2022/06/14 02:54:20;;;;;;;;;3.33;3.33;;;;;17.37;47.44;101644.97;5016581;28;45594;-77
2022/06/14 02:57:00;;;;;;;;;3.67;3.67;;;;;17.66;47.56;101716.25;4998405;28;48198;-74
2022/06/14 02:59:53;;;;;;;;;4.00;3.00;;;;;17.55;47.61;101683.28;5034026;28;46008;-75
2022/06/14 03:02:27;;;;;;;;;4.00;4.00;;;;;17.55;47.85;101687.81;5018416;28;45331;-75
2022/06/14 03:05:22;;;;;;;;;3.00;3.00;;;;;17.00;47.72;101591.66;5031167;28;45273;-76
2022/06/14 03:07:58;;;;;;;;;5.00;4.00;;;;;17.44;48.16;101685.47;5030988;28;46477;-76
2022/06/14 03:10:34;;;;;;;;;5.00;4.00;;;;;17.05;47.84;101608.16;5026266;28;45278;-75
2022/06/14 03:13:18;;;;;;;;;5.67;4.33;;;;;17.60;47.79;101688.16;5031218;28;45485;-74
2022/06/14 03:16:00;;;;;;;;;6.00;3.33;;;;;17.55;47.94;101691.34;5019688;28;46401;-77
2022/06/14 03:18:44;;;;;;;;;5.00;5.00;;;;;17.50;47.94;101679.44;5019213;28;45826;-75
2022/06/14 03:21:15;;;;;;;;;4.67;3.67;;;;;17.55;47.83;101688.66;5018171;28;45472;-76
2022/06/14 03:24:05;;;;;;;;;4.67;4.33;;;;;17.46;48.35;101684.28;5002556;28;45460;-74
2022/06/14 03:26:41;;;;;;;;;6.67;3.67;;;;;17.38;48.14;101678.06;5019788;28;45310;-75
2022/06/14 03:29:21;;;;;;;;;4.00;2.00;;;;;17.32;48.61;101680.41;5030980;28;45836;-75
2022/06/14 03:32:02;;;;;;;;;3.67;2.00;;;;;17.40;48.40;101678.72;5020243;28;45450;-76
2022/06/14 03:34:44;;;;;;;;;4.67;3.33;;;;;16.91;48.56;101603.41;5022111;28;45500;-75
2022/06/14 03:37:11;;;;;;;;;2.33;2.33;;;;;17.44;48.51;101678.25;5020529;28;45189;-76
2022/06/14 03:39:43;;;;;;;;;3.00;3.00;;;;;17.31;48.28;101646.47;5019851;28;45984;-76
2022/06/14 03:42:11;;;;;;;;;3.67;3.67;;;;;17.43;48.74;101659.59;5001504;28;46122;-74
2022/06/14 03:44:37;;;;;;;;;2.67;2.67;;;;;17.18;48.25;101613.00;5001480;28;45605;-75
2022/06/14 03:47:09;;;;;;;;;2.00;2.00;;;;;17.49;48.49;101657.06;5020643;28;45357;-76
2022/06/14 03:49:36;;;;;;;;;2.00;2.00;;;;;17.42;48.22;101649.81;5039242;28;46602;-75
2022/06/14 03:52:10;;;;;;;;;3.67;3.67;;;;;17.42;48.56;101665.94;5033961;28;45467;-75
2022/06/14 03:55:03;;;;;;;;;2.33;2.33;;;;;17.42;48.47;101668.63;5001161;28;45628;-77
2022/06/14 03:58:13;;;;;;;;;3.00;3.00;;;;;17.30;48.84;101654.69;5013045;28;45313;-74
2022/06/14 04:00:50;;;;;;;;;3.00;3.00;;;;;17.35;48.97;101671.16;4997864;28;46970;-74
2022/06/14 04:03:47;;;;;;;;;3.00;3.00;;;;;17.37;48.80;101671.00;5006358;28;45406;-74
2022/06/14 04:06:15;;;;;;;;;5.33;3.33;;;;;17.40;48.86;101670.66;5015326;28;45584;-74
2022/06/14 04:08:40;;;;;;;;;5.33;4.67;;;;;17.38;49.16;101660.06;5003801;28;45271;-75
2022/06/14 04:11:27;;;;;;;;;4.00;4.00;;;;;17.37;48.89;101673.69;4985688;28;46353;-74
2022/06/14 04:14:11;;;;;;;;;4.00;4.00;;;;;17.41;48.95;101673.19;5000890;28;45456;-75
2022/06/14 04:17:04;;;;;;;;;4.00;4.00;;;;;17.46;48.79;101672.69;5013891;28;45409;-75
2022/06/14 04:19:35;;;;;;;;;3.67;3.67;;;;;17.51;48.81;101675.72;4986797;28;45739;-75
2022/06/14 04:22:20;;;;;;;;;5.00;5.00;;;;;17.56;48.47;101676.06;4998926;28;46286;-75
2022/06/14 04:25:12;;;;;;;;;3.00;3.00;;;;;17.55;48.47;101677.06;5014927;28;45947;-76
2022/06/14 04:27:42;;;;;;;;;4.00;4.00;;;;;17.46;48.77;101673.53;4998757;28;45263;-75
2022/06/14 04:30:21;;;;;;;;;8.67;5.00;;;;;17.46;48.97;101673.53;5001396;28;45294;-75
2022/06/14 04:33:00;;;;;;;;;3.67;3.00;;;;;17.47;48.78;101679.75;5006207;28;47010;-75
2022/06/14 04:35:53;;;;;;;;;5.33;4.33;;;;;17.53;48.58;101674.56;4998452;28;45472;-74
2022/06/14 04:38:44;;;;;;;;;3.00;2.00;;;;;17.47;48.49;101647.50;4999358;28;45227;-74
2022/06/14 04:41:21;;;;;;;;;5.00;5.00;;;;;17.61;48.44;101671.00;4982780;28;45659;-75
2022/06/14 04:43:56;;;;;;;;;5.00;4.00;;;;;17.59;48.21;101673.03;4981010;28;48181;-76
2022/06/14 04:46:39;;;;;;;;;7.33;4.00;;;;;17.18;48.40;101595.03;4998833;28;45274;-76
2022/06/14 04:49:19;;;;;;;;;4.33;4.33;;;;;17.10;48.54;101603.09;5009540;28;45555;-74
2022/06/14 04:51:53;;;;;;;;;5.33;4.33;;;;;17.55;48.11;101663.63;5018023;28;45345;-75
2022/06/14 04:54:28;;;;;;;;;5.00;5.00;;;;;17.38;48.27;101638.56;5018132;28;46491;-76
2022/06/14 04:57:08;;;;;;;;;4.33;4.33;;;;;17.56;48.33;101668.00;5000138;28;45475;-74
2022/06/14 04:59:49;;;;;;;;;3.00;2.00;;;;;16.87;48.40;101556.41;5008342;28;45318;-76
2022/06/14 05:02:17;;;;;;;;;3.00;3.00;;;;;17.56;48.09;101670.69;4998161;28;45532;-75
2022/06/14 05:04:53;;;;;;;;;3.00;2.67;;;;;17.25;48.09;101617.56;5011487;28;46666;-74
2022/06/14 05:07:27;;;;;;;;;3.67;3.67;;;;;17.36;47.97;101607.50;5002325;28;45496;-75
2022/06/14 05:10:01;;;;;;;;;3.00;3.00;;;;;16.69;48.04;101492.09;5017093;28;45424;-75
2022/06/14 05:12:37;;;;;;;;;5.33;4.00;;;;;17.74;48.22;101662.50;5000260;28;45492;-75
2022/06/14 05:15:12;;;;;;;;;5.00;5.00;;;;;17.82;47.90;101668.72;5006504;28;46631;-75
2022/06/14 05:17:50;;;;;;;;;6.33;5.00;;;;;17.74;47.63;101639.13;5020254;28;45214;-76
2022/06/14 05:20:38;;;;;;;;;4.00;3.00;;;;;17.96;47.18;101655.56;5002725;28;45406;-77
2022/06/14 05:23:24;;;;;;;;;8.67;5.00;;;;;17.90;47.78;101655.25;4989899;28;45598;-76
2022/06/14 05:26:09;;;;;;;;;6.67;5.33;;;;;17.85;47.41;101654.09;5017468;28;46749;-74
2022/06/14 05:28:38;;;;;;;;;3.00;3.00;;;;;18.04;47.26;101660.97;5017888;28;45418;-75
2022/06/14 05:31:20;;;;;;;;;5.67;4.00;;;;;17.76;47.31;101620.97;5017787;28;45369;-76
2022/06/14 05:34:03;;;;;;;;;5.00;4.00;;;;;17.51;47.34;101573.56;5017614;28;45421;-75
2022/06/14 05:36:37;;;;;;;;;7.33;5.67;;;;;17.72;46.83;101608.88;5014257;28;45698;-74
2022/06/14 05:39:20;;;;;;;;;5.00;5.00;;;;;18.08;47.10;101656.91;5000885;28;45204;-73
2022/06/14 05:41:57;;;;;;;;;4.00;4.00;;;;;17.91;47.05;101631.88;5016292;28;45440;-76
2022/06/14 05:44:31;;;;;;;;;4.00;3.00;;;;;17.28;46.77;101525.88;4996562;28;45425;-77
2022/06/14 05:47:02;;;;;;;;;6.33;4.67;;;;;18.24;46.69;101657.72;5018485;28;46601;-76
2022/06/14 05:49:38;;;;;;;;;6.00;5.00;;;;;17.75;46.16;101537.75;5034228;28;45388;-78
2022/06/14 05:52:31;;;;;;;;;5.67;4.33;;;;;19.32;44.55;101666.03;5023116;28;45255;-77
2022/06/14 05:55:08;;;;;;;;;5.00;4.00;;;;;19.25;43.13;101542.91;5017673;28;45521;-77
2022/06/14 05:57:55;;;;;;;;;5.33;4.00;;;;;18.74;42.35;101438.38;4999342;28;47308;-73
2022/06/14 06:00:46;;;;;;;;;3.67;3.67;;;;;20.50;42.08;101669.06;5017594;28;45338;-76
2022/06/14 06:03:28;;;;;;;;;2.00;2.00;;;;;20.72;40.86;101604.28;5017618;28;45252;-75
2022/06/14 06:05:59;;;;;;;;;5.00;4.00;;;;;21.81;40.15;101668.88;5027395;28;45544;-78
2022/06/14 06:08:34;;;;;;;;;3.67;3.67;;;;;22.39;38.52;101638.91;5016295;28;47168;-76
2022/06/14 06:11:09;;;;;;;;;7.00;7.00;;;;;21.29;36.60;101320.31;5000969;28;45799;-77
2022/06/14 06:13:58;;;;;;;;;4.33;3.33;;;;;24.19;34.63;101647.22;5000240;28;45478;-76
2022/06/14 06:16:45;;;;;;;;;6.67;3.67;;;;;24.12;33.77;101535.03;5017712;28;45251;-79
2022/06/14 06:19:21;;;;;;;;;5.00;3.67;;;;;25.60;32.51;101637.19;5022624;28;46631;-81
2022/06/14 06:21:55;;;;;;;;;3.33;3.33;;;;;26.18;31.79;101646.97;5036124;28;45318;-74
2022/06/14 06:24:24;;;;;;;;;5.00;5.00;;;;;26.65;30.08;101643.53;5023161;28;45234;-80
2022/06/14 06:27:08;;;;;;;;;4.00;4.00;;;;;26.50;29.56;101566.72;5025194;28;45385;-76
2022/06/14 06:29:48;;;;;;;;;5.00;3.00;;;;;27.17;29.52;101597.50;5019338;28;47317;-76
2022/06/14 06:32:18;;;;;;;;;6.33;4.00;;;;;25.56;28.49;101252.03;5010676;28;45588;-76
2022/06/14 06:34:45;;;;;;;;;3.67;3.67;;;;;28.22;28.17;101629.56;5002907;28;45428;-77
2022/06/14 06:37:24;;;;;;;;;5.00;5.00;;;;;28.38;27.49;101619.81;5036560;28;45475;-76
2022/06/14 06:40:05;;;;;;;;;4.67;4.67;;;;;28.76;27.04;101621.97;5043298;28;45973;-76
2022/06/14 06:42:58;;;;;;;;;3.67;3.67;;;;;28.66;27.41;101600.75;5019601;28;45621;-79
2022/06/14 06:45:41;;;;;;;;;8.00;5.33;;;;;28.97;26.60;101617.75;5037151;28;45446;-77
2022/06/14 06:48:24;;;;;;;;;5.67;4.67;;;;;29.57;26.59;101633.66;5009468;28;45204;-78
2022/06/14 06:51:05;;;;;;;;;4.33;4.33;;;;;28.87;25.04;101472.50;5039210;28;46475;-76
2022/06/14 06:53:49;;;;;;;;;6.33;6.33;;;;;29.77;24.91;101613.97;5030956;28;45525;-77
2022/06/14 06:56:25;;;;;;;;;6.00;4.00;;;;;30.05;25.33;101618.53;5020713;28;45459;-73
2022/06/14 06:58:55;;;;;;;;;6.00;4.00;;;;;30.22;25.45;101608.34;5002737;28;45331;-76
2022/06/14 07:01:30;;;;;;;;;6.00;5.00;;;;;30.37;24.57;101638.72;5029983;28;46532;-78
2022/06/14 07:03:59;;;;;;;;;4.33;4.00;;;;;30.11;25.31;101629.31;5019624;28;45271;-77
2022/06/14 07:06:36;;;;;;;;;5.67;5.33;;;;;30.21;24.90;101628.63;5024045;28;45476;-75
2022/06/14 07:09:03;;;;;;;;;3.67;3.67;;;;;30.16;24.68;101620.31;5024295;28;45295;-76
2022/06/14 07:12:01;;;;;;;;;6.00;6.00;;;;;30.32;24.48;101624.13;5002747;28;47333;-79
2022/06/14 07:14:48;;;;;;;;;4.00;4.00;;;;;30.21;23.93;101546.31;5019955;28;45338;-74
2022/06/14 07:17:35;;;;;;;;;4.33;4.33;;;;;30.51;24.77;101541.22;5022414;28;45402;-74
2022/06/14 07:20:05;;;;;;;;;4.33;4.00;;;;;30.74;23.62;101509.91;5021866;28;45329;-75
2022/06/14 07:22:43;;;;;;;;;5.33;5.33;;;;;31.16;22.83;101536.66;5003249;28;47724;-76
2022/06/14 07:25:28;;;;;;;;;4.33;4.00;;;;;31.17;23.03;101506.19;5020890;28;45575;-76
2022/06/14 07:28:24;;;;;;;;;6.00;6.00;;;;;31.38;22.77;101528.34;5018289;28;45609;-77
2022/06/14 07:30:57;;;;;;;;;4.00;4.00;;;;;31.42;22.48;101524.78;5016907;28;45560;-74
2022/06/14 07:33:25;;;;;;;;;4.33;4.33;;;;;32.13;22.14;101604.19;5002178;28;46870;-74
2022/06/14 07:35:58;;;;;;;;;5.33;4.67;;;;;32.17;22.51;101591.53;5030003;28;45547;-77
2022/06/14 07:38:56;;;;;;;;;6.33;3.67;;;;;31.94;21.79;101558.97;5021213;28;45593;-75
2022/06/14 07:41:43;;;;;;;;;3.33;3.33;;;;;32.25;22.17;101604.81;5037310;28;45534;-75
2022/06/14 07:44:15;;;;;;;;;4.33;3.33;;;;;32.07;22.24;101600.59;5021344;28;48675;-76
2022/06/14 07:47:16;;;;;;;;;5.00;3.00;;;;;31.51;22.54;101584.78;5038116;28;45491;-76
2022/06/14 07:49:54;;;;;;;;;4.00;3.00;;;;;30.98;23.57;101526.88;5040579;28;45475;-76
2022/06/14 07:52:31;;;;;;;;;5.67;4.67;;;;;31.17;23.51;101587.78;5022482;28;45497;-75
2022/06/14 07:55:11;;;;;;;;;7.00;5.33;;;;;30.05;24.03;101478.69;5016718;28;47395;-74
2022/06/14 07:57:45;;;;;;;;;6.33;5.33;;;;;30.31;23.87;101595.84;5017710;28;45424;-77
2022/06/14 08:03:11;;;;;;;;;4.00;4.00;;;;;28.19;24.97;101302.78;5006947;28;45455;-77
2022/06/14 08:05:41;;;;;;;;;8.33;6.33;;;;;29.36;24.96;101504.53;4997826;28;45422;-77
2022/06/14 08:08:11;;;;;;;;;7.00;6.00;;;;;29.45;25.14;101539.75;4982304;28;45383;-77
2022/06/14 08:10:42;;;;;;;;;7.00;5.00;;;;;28.82;25.43;101465.00;4983062;28;45283;-79
2022/06/14 08:13:12;;;;;;;;;6.00;6.00;;;;;28.83;25.61;101485.81;4983120;28;45631;-74
2022/06/14 08:15:42;;;;;;;;;6.33;5.33;;;;;28.96;26.24;101567.66;5003095;28;45880;-76
2022/06/14 08:18:22;;;;;;;;;6.67;6.00;;;;;27.98;26.38;101448.34;4981979;28;45433;-77
2022/06/14 08:20:50;;;;;;;;;5.33;4.00;;;;;28.46;26.51;101567.50;5014306;28;45512;-77
2022/06/14 08:23:41;;;;;;;;;4.00;4.00;;;;;28.09;27.35;101554.13;5001796;28;45535;-77
2022/06/14 08:26:09;;;;;;;;;6.33;4.00;;;;;28.00;27.08;101569.22;5015051;28;46819;-79
2022/06/14 08:28:50;;;;;;;;;5.00;5.00;;;;;28.04;27.85;101561.38;5001508;28;46181;-75
2022/06/14 08:31:26;;;;;;;;;6.00;5.00;;;;;27.77;27.71;101503.66;5018785;28;45330;-72
2022/06/14 08:34:04;;;;;;;;;3.67;3.00;;;;;27.85;27.90;101563.44;4991041;28;46887;-74
2022/06/14 08:36:55;;;;;;;;;5.00;5.00;;;;;27.68;27.84;101559.75;5032043;28;47144;-76
2022/06/14 08:39:50;;;;;;;;;4.67;3.67;;;;;27.82;27.78;101564.72;5008251;28;45430;-74
2022/06/14 08:42:28;;;;;;;;;5.00;5.00;;;;;27.78;27.96;101563.53;5030321;28;45259;-77
2022/06/14 08:45:10;;;;;;;;;7.00;5.00;;;;;27.70;28.39;101555.69;5017890;28;45453;-78
2022/06/14 08:47:42;;;;;;;;;5.33;5.00;;;;;27.68;28.29;101560.56;5022026;28;45570;-77
2022/06/14 08:50:09;;;;;;;;;6.00;6.00;;;;;27.66;28.36;101548.22;5038994;28;45828;-76
2022/06/14 08:53:08;;;;;;;;;6.00;5.00;;;;;27.67;28.17;101547.16;5026022;28;45630;-78
2022/06/14 08:56:01;;;;;;;;;8.33;5.67;;;;;27.63;28.30;101554.13;5039337;28;45533;-78
2022/06/14 08:58:36;;;;;;;;;5.67;5.33;;;;;27.57;28.05;101548.53;5038503;28;46089;-75
2022/06/14 09:01:27;;;;;;;;;7.67;4.33;;;;;27.56;27.74;101551.50;5037647;28;45310;-77
2022/06/14 09:04:31;;;;;;;;;3.33;3.33;;;;;27.17;28.52;101551.09;5036150;28;45363;-80
2022/06/14 09:07:11;;;;;;;;;4.00;4.00;;;;;26.98;28.88;101544.03;5015447;28;45576;-75
2022/06/14 09:10:03;;;;;;;;;5.00;4.00;;;;;27.18;28.81;101549.19;5038198;28;46167;-76
2022/06/14 09:12:41;;;;;;;;;12.00;8.67;;;;;26.25;28.64;101435.97;5026694;28;45380;-78
2022/06/14 09:15:28;;;;;;;;;5.33;4.00;;;;;27.19;28.61;101550.84;5018225;28;45635;-78
2022/06/14 09:17:59;;;;;;;;;3.00;3.00;;;;;27.39;28.01;101547.81;5036760;28;45340;-74
2022/06/14 09:20:38;;;;;;;;;5.33;5.33;;;;;26.47;27.92;101435.47;5037348;28;45646;-76
2022/06/14 09:23:18;;;;;;;;;5.00;4.67;;;;;26.33;27.89;101432.06;5040083;28;45418;-76
2022/06/14 09:26:17;;;;;;;;;6.00;4.00;;;;;27.13;28.71;101549.06;5037175;28;45366;-75
2022/06/14 09:28:55;;;;;;;;;4.33;4.33;;;;;27.06;28.44;101540.16;5036847;28;45560;-76
2022/06/14 09:31:39;;;;;;;;;5.67;4.67;;;;;27.02;28.58;101549.88;5036345;28;47314;-74
2022/06/14 09:34:30;;;;;;;;;6.00;4.33;;;;;26.07;28.50;101423.19;5029427;28;45337;-76
2022/06/14 09:37:33;;;;;;;;;6.00;5.00;;;;;26.71;28.55;101529.94;5050290;28;45353;-76
2022/06/14 09:39:58;;;;;;;;;5.33;5.33;;;;;26.79;28.31;101535.06;5038825;28;45575;-78
2022/06/14 09:42:48;;;;;;;;;7.67;6.00;;;;;26.76;28.45;101538.25;5040643;28;45422;-77
2022/06/14 09:45:26;;;;;;;;;5.33;4.33;;;;;26.74;28.38;101529.47;5037628;28;45238;-78
2022/06/14 09:47:58;;;;;;;;;4.00;4.00;;;;;26.54;28.85;101539.84;5040562;28;45618;-76
2022/06/14 09:50:42;;;;;;;;;6.67;5.00;;;;;26.30;29.16;101498.78;5040510;28;45619;-77
2022/06/14 09:53:32;;;;;;;;;7.67;5.67;;;;;26.50;28.93;101533.19;5039521;28;46585;-76
2022/06/14 09:56:16;;;;;;;;;5.00;4.00;;;;;26.41;29.14;101531.81;5058045;28;45332;-76
2022/06/14 09:59:06;;;;;;;;;6.00;6.00;;;;;26.26;29.54;101534.94;5040028;28;45578;-77
2022/06/14 10:01:32;;;;;;;;;4.00;4.00;;;;;26.35;29.38;101539.84;5040480;28;45519;-76
2022/06/14 10:04:18;;;;;;;;;8.00;5.00;;;;;26.42;29.38;101528.84;5039071;28;46621;-76
2022/06/14 10:07:05;;;;;;;;;4.33;4.33;;;;;26.52;29.33;101520.16;5039093;28;45301;-75
2022/06/14 10:09:45;;;;;;;;;7.00;5.67;;;;;26.55;29.48;101522.41;5056664;28;45463;-76
2022/06/14 10:12:18;;;;;;;;;4.00;4.00;;;;;26.62;29.73;101523.13;5057869;28;45453;-76
2022/06/14 10:15:12;;;;;;;;;5.00;5.00;;;;;26.11;28.91;101433.63;5057459;28;45866;-78
2022/06/14 10:17:38;;;;;;;;;4.00;4.00;;;;;26.57;29.12;101515.66;5056288;28;45479;-76
2022/06/14 10:20:39;;;;;;;;;4.33;4.33;;;;;26.60;29.11;101520.63;5040126;28;45485;-77
2022/06/14 10:23:18;;;;;;;;;6.67;5.67;;;;;26.31;28.78;101472.38;5039670;28;45202;-75
2022/06/14 10:28:58;;;;;;;;;5.67;5.67;;;;;26.36;28.54;101519.72;5037259;28;45418;-76
2022/06/14 10:31:49;;;;;;;;;9.67;7.67;;;;;25.63;29.32;101401.72;4996999;28;45524;-78
2022/06/14 10:34:28;;;;;;;;;8.67;7.00;;;;;25.20;29.13;101323.66;5037899;28;45522;-77
2022/06/14 10:37:09;;;;;;;;;6.33;6.33;;;;;26.21;29.51;101502.88;5039417;28;46469;-75
2022/06/14 10:39:55;;;;;;;;;8.00;6.00;;;;;25.94;29.63;101509.72;5041821;28;45590;-78
2022/06/14 10:42:54;;;;;;;;;14.33;11.00;;;;;25.59;30.23;101480.31;5041135;28;45436;-79
2022/06/14 10:45:31;;;;;;;;;12.00;9.67;;;;;25.79;29.63;101493.75;5038017;28;45294;-79
2022/06/14 10:48:24;;;;;;;;;8.00;8.00;;;;;25.80;30.27;101498.13;5037361;28;45621;-77
2022/06/14 10:51:04;;;;;;;;;5.00;5.00;;;;;25.06;29.73;101366.53;5038018;28;45364;-75
2022/06/14 10:53:52;;;;;;;;;5.00;5.00;;;;;25.18;29.80;101416.44;5019995;28;45206;-75
2022/06/14 10:56:39;;;;;;;;;7.00;7.00;;;;;25.67;29.20;101480.06;5020910;28;45480;-75
2022/06/14 10:59:42;;;;;;;;;7.67;5.33;;;;;25.58;29.43;101489.53;5037472;28;46363;-78
2022/06/14 11:02:28;;;;;;;;;8.00;6.33;;;;;24.52;29.97;101331.84;5039419;28;45274;-77
2022/06/14 11:05:21;;;;;;;;;8.00;8.00;;;;;25.07;29.91;101414.47;5039473;28;45567;-78
2022/06/14 11:08:22;;;;;;;;;6.00;6.00;;;;;25.49;29.39;101469.13;5035709;28;45595;-73
2022/06/14 11:10:59;;;;;;;;;8.00;8.00;;;;;25.43;29.33;101470.03;4972420;28;47098;-76
2022/06/14 11:13:24;;;;;;;;;9.00;8.00;;;;;25.47;29.88;101466.63;5025041;28;45503;-76
2022/06/14 11:15:56;;;;;;;;;5.33;5.33;;;;;25.56;29.93;101458.97;5035371;28;45845;-75
2022/06/14 11:18:31;;;;;;;;;7.33;7.33;;;;;25.53;30.24;101453.97;5035209;28;45466;-74
2022/06/14 11:21:27;;;;;;;;;6.67;5.00;;;;;25.51;30.32;101445.22;5036369;28;45392;-75
2022/06/14 11:24:07;;;;;;;;;8.33;7.00;;;;;25.42;31.00;101447.38;5022427;28;45639;-74
2022/06/14 11:27:04;;;;;;;;;6.67;6.67;;;;;24.79;31.39;101365.91;5041357;28;45468;-77
2022/06/14 11:29:41;;;;;;;;;8.00;7.00;;;;;25.23;31.51;101436.69;5041144;28;45491;-78
2022/06/14 11:32:17;;;;;;;;;6.00;6.00;;;;;25.08;31.31;101390.81;5039094;28;45464;-75
2022/06/14 11:35:19;;;;;;;;;11.00;10.00;;;;;25.24;30.67;101441.09;5054350;28;45360;-77
2022/06/14 11:38:05;;;;;;;;;11.67;9.67;;;;;24.96;30.81;101371.63;5042260;28;45868;-77
2022/06/14 11:40:33;;;;;;;;;8.00;7.00;;;;;25.42;30.62;101430.22;5061670;28;45458;-76
2022/06/14 11:43:20;;;;;;;;;12.33;9.67;;;;;25.32;31.12;101413.59;5042092;28;46088;-73
2022/06/14 11:46:13;;;;;;;;;7.00;7.00;;;;;25.24;31.03;101389.41;5042927;28;45238;-74
2022/06/14 11:49:04;;;;;;;;;11.33;10.33;;;;;25.46;30.79;101415.13;5059978;28;45385;-75
2022/06/14 11:51:46;;;;;;;;;6.33;6.33;;;;;25.14;30.80;101363.50;5043194;28;45395;-76
2022/06/14 11:54:25;;;;;;;;;6.33;6.33;;;;;25.47;30.80;101397.72;5045151;28;45714;-77
2022/06/14 11:56:56;;;;;;;;;8.67;8.67;;;;;25.44;30.67;101411.78;5050048;28;45431;-74
2022/06/14 11:59:43;;;;;;;;;7.67;7.33;;;;;24.83;30.24;101318.19;5046797;28;45417;-77
2022/06/14 12:02:41;;;;;;;;;6.33;5.33;;;;;25.42;30.50;101397.53;5059931;28;45358;-74
2022/06/14 12:05:16;;;;;;;;;9.00;5.00;;;;;25.51;30.78;101398.94;5043770;28;45548;-77
2022/06/14 12:07:50;;;;;;;;;8.00;7.00;;;;;25.22;30.29;101386.03;5021906;28;46353;-74
2022/06/14 12:10:50;;;;;;;;;8.00;6.33;;;;;25.31;30.66;101390.16;5050461;28;47072;-74
2022/06/14 12:13:34;;;;;;;;;9.67;7.33;;;;;24.66;30.72;101261.88;5058360;28;45376;-76
2022/06/14 12:16:33;;;;;;;;;7.67;6.00;;;;;25.54;30.51;101382.13;5041325;28;46381;-75
2022/06/14 12:19:07;;;;;;;;;8.00;6.00;;;;;25.63;30.05;101382.66;5021433;28;45423;-76
2022/06/14 12:21:38;;;;;;;;;7.00;5.00;;;;;24.66;30.12;101234.69;5022816;28;45854;-77
2022/06/14 12:24:10;;;;;;;;;4.33;4.33;;;;;24.98;30.13;101293.31;5037111;28;45268;-77
2022/06/14 12:26:46;;;;;;;;;7.00;7.00;;;;;25.51;29.89;101379.03;5043431;28;46065;-76
2022/06/14 12:29:33;;;;;;;;;5.67;5.67;;;;;24.89;30.27;101275.66;5039773;28;45415;-75
2022/06/14 12:32:21;;;;;;;;;7.00;7.00;;;;;25.52;29.42;101370.63;5038772;28;45483;-74